Time;durP1;ratioP1;P1;durP2;ratioP2;P2;SDS_P1;SDS_P2;PMS_P1;PMS_P2;Temp;Humidity;BMP_temperature;BMP_pressure;BME280_temperature;BME280_humidity;BME280_pressure;Samples;Min_cycle;Max_cycle;Signal;HPM_P1;HPM_P2
2022/10/03 11:23:12;;;;;;;;;;;15.70;65.70;;;;;;6125327;23;20008;-66
2022/10/03 11:25:57;;;;;;;;;;;15.70;65.60;;;;;;6125117;23;19936;-67
2022/10/03 11:28:27;;;;;;;;;;;15.70;65.90;;;;;;6125063;23;19967;-66
2022/10/03 11:30:57;;;;;;;;;;;15.70;66.30;;;;;;6125659;23;19947;-66
2022/10/03 11:33:26;;;;;;;;;;;15.70;66.20;;;;;;6125424;23;19901;-66
2022/10/03 11:36:16;;;;;;;;;;;15.70;65.90;;;;;;6125168;23;19901;-67
2022/10/03 11:38:48;;;;;;;;;;;15.70;65.90;;;;;;6124330;23;20333;-67
2022/10/03 11:41:32;;;;;;;;;;;15.70;65.80;;;;;;6125506;23;19908;-67
2022/10/03 11:43:59;;;;;;;;;;;15.70;65.50;;;;;;6125047;23;19909;-67
2022/10/03 11:46:25;;;;;;;;;;;15.70;65.90;;;;;;6124785;23;19957;-67
2022/10/03 11:48:58;;;;;;;;;;;15.70;66.20;;;;;;6125010;23;19901;-66
2022/10/03 11:51:43;;;;;;;;;;;15.80;66.40;;;;;;6125629;23;19905;-66
2022/10/03 11:54:19;;;;;;;;;;;15.70;66.60;;;;;;6075484;23;19905;-66
2022/10/03 11:56:46;;;;;;;;;;;15.70;66.20;;;;;;6124915;23;19905;-66
2022/10/03 11:59:25;;;;;;;;;;;15.70;66.30;;;;;;6075210;23;20233;-66
2022/10/03 12:01:54;;;;;;;;;;;15.70;66.50;;;;;;6125429;23;20290;-67
2022/10/03 12:04:30;;;;;;;;;;;15.70;66.50;;;;;;6124670;23;19909;-66
2022/10/03 12:10:03;;;;;;;;;;;15.70;66.60;;;;;;6104921;23;20289;-66
2022/10/03 12:12:40;;;;;;;;;;;15.70;66.80;;;;;;6101194;23;20317;-66
2022/10/03 12:15:25;;;;;;;;;;;15.70;66.80;;;;;;6126909;23;19979;-66
2022/10/03 12:17:55;;;;;;;;;;;15.70;67.40;;;;;;6127025;23;19905;-67
2022/10/03 12:20:25;;;;;;;;;;;15.60;67.10;;;;;;6100564;23;20312;-66
2022/10/03 12:22:52;;;;;;;;;;;15.60;67.40;;;;;;6100656;23;19916;-66
2022/10/03 12:25:22;;;;;;;;;;;15.60;67.50;;;;;;6126576;23;19905;-66
2022/10/03 12:28:06;;;;;;;;;;;15.50;67.90;;;;;;6101277;23;20263;-66
2022/10/03 12:30:45;;;;;;;;;;;15.60;67.70;;;;;;6126576;23;19905;-68
2022/10/03 12:33:17;;;;;;;;;;;15.50;67.90;;;;;;6126642;23;19904;-68
2022/10/03 12:35:49;;;;;;;;;;;15.50;68.00;;;;;;6100452;23;20348;-66
2022/10/03 12:38:39;;;;;;;;;;;15.50;68.40;;;;;;6126213;23;20037;-66
2022/10/03 12:41:24;;;;;;;;;;;15.50;68.20;;;;;;6100754;23;19908;-66
2022/10/03 12:44:06;;;;;;;;;;;15.40;68.50;;;;;;6126266;23;19955;-66
2022/10/03 12:46:43;;;;;;;;;;;15.40;68.50;;;;;;6126418;23;19912;-66
2022/10/03 12:49:15;;;;;;;;;;;15.40;68.10;;;;;;6100373;23;19901;-66
2022/10/03 12:51:58;;;;;;;;;;;15.30;68.40;;;;;;6126486;23;19900;-66
2022/10/03 12:54:35;;;;;;;;;;;15.30;68.60;;;;;;6100894;23;20236;-67
2022/10/03 12:57:02;;;;;;;;;;;15.30;68.60;;;;;;6100291;23;19908;-67
2022/10/03 12:59:41;;;;;;;;;;;15.30;68.90;;;;;;6125985;23;20308;-66
2022/10/03 13:02:16;;;;;;;;;;;15.20;69.40;;;;;;6099987;23;19971;-67
2022/10/03 13:04:43;;;;;;;;;;;15.30;69.10;;;;;;6126059;23;20336;-67
2022/10/03 13:07:19;;;;;;;;;;;15.20;69.30;;;;;;6126097;23;19976;-66
2022/10/03 13:09:48;;;;;;;;;;;15.20;69.20;;;;;;6126114;23;19964;-67
2022/10/03 13:12:15;;;;;;;;;;;15.20;69.40;;;;;;6099851;23;19917;-66
2022/10/03 13:15:02;;;;;;;;;;;15.20;69.80;;;;;;6126110;23;19901;-66
2022/10/03 13:17:35;;;;;;;;;;;15.20;69.80;;;;;;6100677;23;19907;-66
2022/10/03 13:20:05;;;;;;;;;;;15.10;70.10;;;;;;6100440;23;20368;-66
2022/10/03 13:22:36;;;;;;;;;;;15.00;70.20;;;;;;6100296;23;20317;-67
2022/10/03 13:25:02;;;;;;;;;;;15.00;70.40;;;;;;6126385;23;20236;-67
2022/10/03 13:27:31;;;;;;;;;;;15.00;70.40;;;;;;6126189;23;19971;-67
2022/10/03 13:30:05;;;;;;;;;;;15.00;70.90;;;;;;6125115;23;20222;-67
2022/10/03 13:32:31;;;;;;;;;;;14.90;71.20;;;;;;6100209;23;19957;-67
2022/10/03 13:38:07;;;;;;;;;;;14.80;72.10;;;;;;6126125;23;19907;-67
2022/10/03 13:40:38;;;;;;;;;;;14.70;72.80;;;;;;6100048;23;19964;-67
2022/10/03 13:43:08;;;;;;;;;;;14.70;72.70;;;;;;6100197;23;19909;-66
2022/10/03 13:45:35;;;;;;;;;;;14.70;72.80;;;;;;6099742;23;19932;-66
2022/10/03 13:48:06;;;;;;;;;;;14.70;72.60;;;;;;6099837;23;19901;-67
2022/10/03 13:50:42;;;;;;;;;;;14.70;72.50;;;;;;6099505;23;19901;-66
2022/10/03 13:53:14;;;;;;;;;;;14.70;72.40;;;;;;6124874;23;19908;-66
2022/10/03 13:55:57;;;;;;;;;;;14.70;72.40;;;;;;6100037;23;20209;-66
2022/10/03 13:58:42;;;;;;;;;;;14.70;72.80;;;;;;6125482;23;19905;-66
2022/10/03 14:01:28;;;;;;;;;;;14.60;72.50;;;;;;6125933;23;19980;-66
2022/10/03 14:04:13;;;;;;;;;;;14.60;72.90;;;;;;6076175;23;19963;-66
2022/10/03 14:06:40;;;;;;;;;;;14.60;73.00;;;;;;6126083;23;19901;-66
2022/10/03 14:09:18;;;;;;;;;;;14.60;73.20;;;;;;6125853;23;20321;-66
2022/10/03 14:12:05;;;;;;;;;;;14.50;73.30;;;;;;6125241;23;19932;-67
2022/10/03 14:14:51;;;;;;;;;;;14.50;73.60;;;;;;6109944;23;19901;-67
2022/10/03 14:17:19;;;;;;;;;;;14.50;73.90;;;;;;6110109;23;20214;-66
2022/10/03 14:19:59;;;;;;;;;;;14.40;74.10;;;;;;6125130;23;19900;-67
2022/10/03 14:22:35;;;;;;;;;;;14.50;74.10;;;;;;6099699;23;19913;-67
2022/10/03 14:25:18;;;;;;;;;;;14.50;74.20;;;;;;6099530;23;20088;-67
2022/10/03 14:27:52;;;;;;;;;;;14.50;74.10;;;;;;6099429;23;19936;-67
2022/10/03 14:30:20;;;;;;;;;;;14.40;73.40;;;;;;6099962;23;19901;-67
2022/10/03 14:33:09;;;;;;;;;;;14.40;73.30;;;;;;6099861;23;19901;-67
2022/10/03 14:35:39;;;;;;;;;;;14.40;73.10;;;;;;6125654;23;19944;-67
2022/10/03 14:38:23;;;;;;;;;;;14.30;73.00;;;;;;6125131;23;19983;-67
2022/10/03 14:40:52;;;;;;;;;;;14.30;72.90;;;;;;6125890;23;19905;-67
2022/10/03 14:43:25;;;;;;;;;;;14.30;72.70;;;;;;6099185;23;19909;-67
2022/10/03 14:45:52;;;;;;;;;;;14.30;72.90;;;;;;6099566;23;20371;-67
2022/10/03 14:48:21;;;;;;;;;;;14.30;72.90;;;;;;6125179;23;19901;-67
2022/10/03 14:50:51;;;;;;;;;;;14.20;72.90;;;;;;6099422;23;19901;-67
2022/10/03 14:53:19;;;;;;;;;;;14.20;73.00;;;;;;6100020;23;19901;-67
2022/10/03 14:55:51;;;;;;;;;;;14.20;73.00;;;;;;6099487;23;19901;-67
2022/10/03 14:58:21;;;;;;;;;;;14.20;73.50;;;;;;6098711;23;19901;-67
2022/10/03 15:01:11;;;;;;;;;;;14.20;73.60;;;;;;6099205;23;19905;-66
2022/10/03 15:03:39;;;;;;;;;;;14.10;73.80;;;;;;6112155;23;19917;-67
2022/10/03 15:06:12;;;;;;;;;;;14.10;73.90;;;;;;6099754;23;19984;-65
2022/10/03 15:08:42;;;;;;;;;;;14.10;74.10;;;;;;6125508;23;19900;-67
2022/10/03 15:11:09;;;;;;;;;;;14.10;74.20;;;;;;6125026;23;19901;-66
2022/10/03 15:13:41;;;;;;;;;;;14.00;74.50;;;;;;6099936;23;19901;-66
2022/10/03 15:16:07;;;;;;;;;;;14.00;74.60;;;;;;6125248;23;20298;-66
2022/10/03 15:18:34;;;;;;;;;;;13.90;74.80;;;;;;6099095;23;19948;-67
2022/10/03 15:21:00;;;;;;;;;;;14.00;75.00;;;;;;6125352;23;19916;-66
2022/10/03 15:23:29;;;;;;;;;;;13.90;75.30;;;;;;6124766;23;19915;-66
2022/10/03 15:25:56;;;;;;;;;;;13.80;75.40;;;;;;6099366;23;20371;-67
2022/10/03 15:28:35;;;;;;;;;;;13.80;75.80;;;;;;6099117;23;19905;-67
2022/10/03 15:31:21;;;;;;;;;;;13.70;75.80;;;;;;6125938;23;19940;-67
2022/10/03 15:33:48;;;;;;;;;;;13.70;75.90;;;;;;6099134;23;19900;-66
2022/10/03 15:36:38;;;;;;;;;;;13.70;76.20;;;;;;6099072;23;19980;-67
2022/10/03 15:39:06;;;;;;;;;;;13.70;76.10;;;;;;6109940;23;19901;-67
2022/10/03 15:41:34;;;;;;;;;;;13.70;76.30;;;;;;6125986;23;20293;-66
2022/10/03 15:44:03;;;;;;;;;;;13.70;76.60;;;;;;6126678;23;20321;-67
2022/10/03 15:46:30;;;;;;;;;;;13.70;76.40;;;;;;6126938;23;19901;-66
2022/10/03 15:48:56;;;;;;;;;;;13.60;76.40;;;;;;6101253;23;20241;-66
2022/10/03 15:51:25;;;;;;;;;;;13.60;76.60;;;;;;6101636;23;19976;-66
2022/10/03 15:53:52;;;;;;;;;;;13.60;76.40;;;;;;6101315;23;19908;-66
2022/10/03 15:56:38;;;;;;;;;;;13.50;76.70;;;;;;6101708;23;19908;-66
2022/10/03 15:59:21;;;;;;;;;;;13.50;76.90;;;;;;6100996;23;19909;-68
2022/10/03 16:01:50;;;;;;;;;;;13.50;77.20;;;;;;6100821;23;19901;-67
2022/10/03 16:04:19;;;;;;;;;;;13.40;77.20;;;;;;6101730;23;20329;-67
2022/10/03 16:06:52;;;;;;;;;;;13.40;77.50;;;;;;6126899;23;19901;-67
2022/10/03 16:09:18;;;;;;;;;;;13.50;77.80;;;;;;6101104;23;19901;-67
2022/10/03 16:11:45;;;;;;;;;;;13.50;77.80;;;;;;6126882;23;19901;-67
2022/10/03 16:14:18;;;;;;;;;;;13.50;77.80;;;;;;6127217;23;19976;-67
2022/10/03 16:17:05;;;;;;;;;;;13.50;77.60;;;;;;6101271;23;20000;-67
2022/10/03 16:19:38;;;;;;;;;;;13.60;78.10;;;;;;6106878;23;19905;-67
2022/10/03 16:22:14;;;;;;;;;;;13.50;78.30;;;;;;6100961;23;19979;-67
2022/10/03 16:24:43;;;;;;;;;;;13.50;78.40;;;;;;6126440;23;20288;-67
2022/10/03 16:27:15;;;;;;;;;;;13.50;78.30;;;;;;6100857;23;19901;-67
2022/10/03 16:30:05;;;;;;;;;;;13.40;78.10;;;;;;6101089;23;19901;-67
2022/10/03 16:32:31;;;;;;;;;;;13.40;78.10;;;;;;6047567;23;19908;-67
2022/10/03 16:34:59;;;;;;;;;;;13.40;78.10;;;;;;6126597;23;19901;-67
2022/10/03 16:37:26;;;;;;;;;;;13.40;78.10;;;;;;6126774;23;19901;-68
2022/10/03 16:40:03;;;;;;;;;;;13.40;78.80;;;;;;6100904;23;19908;-67
2022/10/03 16:42:38;;;;;;;;;;;13.40;78.50;;;;;;6126640;23;19901;-67
2022/10/03 16:45:05;;;;;;;;;;;13.40;78.70;;;;;;6100518;23;19901;-68
2022/10/03 16:47:37;;;;;;;;;;;13.30;79.10;;;;;;6100321;23;19900;-68
2022/10/03 16:52:52;;;;;;;;;;;13.30;79.60;;;;;;6104631;23;19908;-67
2022/10/03 16:55:24;;;;;;;;;;;13.30;79.90;;;;;;6100836;23;20363;-67
2022/10/03 16:57:51;;;;;;;;;;;13.30;80.30;;;;;;6126157;23;19925;-67
2022/10/03 17:00:44;;;;;;;;;;;13.30;80.60;;;;;;6126515;23;19901;-68
2022/10/03 17:03:20;;;;;;;;;;;13.30;80.70;;;;;;6120981;23;19915;-67
2022/10/03 17:05:47;;;;;;;;;;;13.20;80.80;;;;;;6100590;23;19901;-67
2022/10/03 17:08:14;;;;;;;;;;;13.20;81.00;;;;;;6100457;23;19980;-67
2022/10/03 17:10:41;;;;;;;;;;;13.20;80.90;;;;;;6126614;23;20237;-67
2022/10/03 17:13:17;;;;;;;;;;;13.20;80.70;;;;;;6100866;23;20244;-67
2022/10/03 17:15:47;;;;;;;;;;;13.20;80.80;;;;;;6101114;23;19901;-67
2022/10/03 17:18:15;;;;;;;;;;;13.20;80.90;;;;;;6100670;23;19905;-67
2022/10/03 17:20:47;;;;;;;;;;;13.20;80.80;;;;;;6099122;23;19976;-67
2022/10/03 17:23:22;;;;;;;;;;;13.20;80.80;;;;;;6100553;23;19909;-67
2022/10/03 17:25:57;;;;;;;;;;;13.10;80.90;;;;;;6126552;23;19901;-67
2022/10/03 17:28:30;;;;;;;;;;;13.10;81.00;;;;;;6126563;23;19908;-67
2022/10/03 17:30:59;;;;;;;;;;;13.20;81.00;;;;;;6099799;23;19947;-67
2022/10/03 17:33:25;;;;;;;;;;;13.10;80.70;;;;;;6100091;23;19900;-67
2022/10/03 17:36:10;;;;;;;;;;;13.10;80.50;;;;;;6126113;23;20339;-67
2022/10/03 17:39:06;;;;;;;;;;;13.10;80.40;;;;;;6125614;23;20320;-67
2022/10/03 17:41:38;;;;;;;;;;;13.00;80.80;;;;;;6106292;23;19932;-67
2022/10/03 17:44:16;;;;;;;;;;;13.00;80.90;;;;;;6125845;23;20236;-67
2022/10/03 17:46:45;;;;;;;;;;;13.00;80.90;;;;;;6125807;23;19928;-67
2022/10/03 17:49:11;;;;;;;;;;;13.00;81.20;;;;;;6125832;23;19912;-72
2022/10/03 17:51:39;;;;;;;;;;;13.00;81.10;;;;;;6123692;23;19905;-71
2022/10/03 17:54:37;;;;;;;;;;;13.00;80.70;;;;;;6100492;23;19924;-70
2022/10/03 17:57:05;;;;;;;;;;;13.00;80.60;;;;;;6107301;23;19916;-70
2022/10/03 17:59:34;;;;;;;;;;;13.00;80.10;;;;;;6099160;23;20272;-70
2022/10/03 18:02:04;;;;;;;;;;;13.00;80.10;;;;;;6124817;23;19979;-68
2022/10/03 18:04:41;;;;;;;;;;;13.00;79.90;;;;;;6098201;23;19909;-67
2022/10/03 18:07:24;;;;;;;;;;;13.10;80.20;;;;;;6123188;23;20186;-67
2022/10/03 18:09:51;;;;;;;;;;;13.10;80.00;;;;;;6099373;23;19901;-67
2022/10/03 18:12:37;;;;;;;;;;;13.10;80.10;;;;;;6099084;23;19915;-67
2022/10/03 18:15:13;;;;;;;;;;;13.10;80.30;;;;;;6099356;23;19908;-66
2022/10/03 18:17:45;;;;;;;;;;;13.10;80.00;;;;;;6125538;23;19901;-66
2022/10/03 18:20:12;;;;;;;;;;;13.10;80.00;;;;;;6125389;23;20351;-66
2022/10/03 18:22:41;;;;;;;;;;;13.10;79.40;;;;;;6125426;23;20269;-66
2022/10/03 18:28:12;;;;;;;;;;;13.10;79.40;;;;;;6125551;23;19972;-67
2022/10/03 18:30:49;;;;;;;;;;;13.10;79.20;;;;;;6099925;23;19908;-66
2022/10/03 18:33:18;;;;;;;;;;;13.10;79.20;;;;;;6099921;23;20217;-66
2022/10/03 18:35:45;;;;;;;;;;;13.10;79.50;;;;;;6097209;23;19901;-65
2022/10/03 18:38:13;;;;;;;;;;;13.00;79.60;;;;;;6122421;23;19911;-66
2022/10/03 18:40:46;;;;;;;;;;;13.00;79.60;;;;;;6099208;23;19901;-66
2022/10/03 18:43:44;;;;;;;;;;;13.00;79.80;;;;;;6124508;23;20284;-66
2022/10/03 18:46:19;;;;;;;;;;;13.00;79.70;;;;;;6123486;23;20324;-66
2022/10/03 18:48:47;;;;;;;;;;;13.00;79.60;;;;;;6123583;23;19900;-66
2022/10/03 18:51:17;;;;;;;;;;;12.90;79.60;;;;;;6099244;23;19940;-66
2022/10/03 18:53:45;;;;;;;;;;;12.90;79.90;;;;;;6125038;23;19901;-66
2022/10/03 18:56:12;;;;;;;;;;;12.80;80.30;;;;;;6125133;23;20343;-66
2022/10/03 18:58:41;;;;;;;;;;;12.80;80.40;;;;;;6099503;23;19901;-66
2022/10/03 19:01:17;;;;;;;;;;;12.80;80.70;;;;;;6099198;23;19905;-66
2022/10/03 19:04:04;;;;;;;;;;;12.80;81.00;;;;;;6099158;23;19916;-66
2022/10/03 19:06:35;;;;;;;;;;;12.70;81.30;;;;;;6109542;23;20214;-66
2022/10/03 19:09:11;;;;;;;;;;;12.70;81.20;;;;;;6099605;23;19901;-66
2022/10/03 19:11:41;;;;;;;;;;;12.60;81.50;;;;;;6100485;23;19926;-66
2022/10/03 19:14:12;;;;;;;;;;;12.50;82.10;;;;;;6124846;23;19900;-66
2022/10/03 19:16:48;;;;;;;;;;;12.50;82.30;;;;;;6098860;23;19979;-67
2022/10/03 19:19:18;;;;;;;;;;;12.50;82.30;;;;;;6124379;23;19904;-66
2022/10/03 19:21:44;;;;;;;;;;;12.50;82.30;;;;;;6124358;23;19913;-65
2022/10/03 19:24:11;;;;;;;;;;;12.50;81.70;;;;;;6124458;23;19909;-66
2022/10/03 19:26:42;;;;;;;;;;;12.50;81.80;;;;;;6124433;23;19983;-65
2022/10/03 19:29:10;;;;;;;;;;;12.50;82.10;;;;;;6099088;23;19901;-66
2022/10/03 19:31:54;;;;;;;;;;;12.40;81.90;;;;;;6099317;23;19904;-66
2022/10/03 19:34:35;;;;;;;;;;;12.50;81.90;;;;;;6125275;23;19900;-66
2022/10/03 19:37:02;;;;;;;;;;;12.50;82.20;;;;;;6124334;23;19963;-65
2022/10/03 19:39:29;;;;;;;;;;;12.40;81.60;;;;;;6098564;23;19905;-66
2022/10/03 19:41:56;;;;;;;;;;;12.40;81.90;;;;;;6099451;23;19908;-66
2022/10/03 19:44:24;;;;;;;;;;;12.40;81.80;;;;;;6099350;23;19916;-66
2022/10/03 19:47:04;;;;;;;;;;;12.50;81.80;;;;;;6099797;23;19900;-66
2022/10/03 19:49:46;;;;;;;;;;;12.40;81.60;;;;;;6124531;23;19901;-67
2022/10/03 19:52:20;;;;;;;;;;;12.40;81.40;;;;;;6124934;23;19980;-67
2022/10/03 19:55:05;;;;;;;;;;;12.40;81.30;;;;;;6099049;23;19907;-66
2022/10/03 19:57:32;;;;;;;;;;;12.40;81.50;;;;;;6124988;23;19901;-67
2022/10/03 19:59:59;;;;;;;;;;;12.40;81.60;;;;;;6125232;23;19908;-67
2022/10/03 20:02:26;;;;;;;;;;;12.50;81.80;;;;;;6099282;23;19979;-66
2022/10/03 20:04:53;;;;;;;;;;;12.60;81.80;;;;;;6099384;23;20317;-67
2022/10/03 20:07:38;;;;;;;;;;;12.50;81.80;;;;;;6125263;23;20388;-66
2022/10/03 20:10:17;;;;;;;;;;;12.50;81.70;;;;;;6124771;23;20213;-67
2022/10/03 20:12:44;;;;;;;;;;;12.60;82.00;;;;;;6124916;23;19901;-67
2022/10/03 20:15:23;;;;;;;;;;;12.60;81.60;;;;;;6099348;23;19940;-69
2022/10/03 20:17:50;;;;;;;;;;;12.70;81.60;;;;;;6099086;23;19901;-69
2022/10/03 20:20:21;;;;;;;;;;;12.80;81.90;;;;;;6099523;23;19979;-69
2022/10/03 20:22:48;;;;;;;;;;;12.90;81.60;;;;;;6124438;23;19963;-68
2022/10/03 20:25:26;;;;;;;;;;;12.90;81.50;;;;;;6099004;23;19947;-69
2022/10/03 20:27:53;;;;;;;;;;;13.00;81.60;;;;;;6126310;23;20312;-67
2022/10/03 20:30:28;;;;;;;;;;;13.00;81.30;;;;;;6100687;23;19901;-69
2022/10/03 20:32:55;;;;;;;;;;;13.10;81.30;;;;;;6126624;23;19901;-69
2022/10/03 20:35:28;;;;;;;;;;;13.20;81.30;;;;;;6100557;23;19955;-69
2022/10/03 20:37:55;;;;;;;;;;;13.20;81.30;;;;;;6100349;23;20235;-69
2022/10/03 20:40:28;;;;;;;;;;;13.20;81.50;;;;;;6100089;23;20292;-69
2022/10/03 20:42:59;;;;;;;;;;;13.30;81.20;;;;;;6101339;23;19936;-70
2022/10/03 20:45:26;;;;;;;;;;;13.40;81.00;;;;;;6100418;23;19901;-70
2022/10/03 20:48:05;;;;;;;;;;;13.40;81.00;;;;;;6126052;23;19980;-70
2022/10/03 20:50:39;;;;;;;;;;;13.50;80.80;;;;;;6100601;23;19998;-69
2022/10/03 20:53:27;;;;;;;;;;;13.60;80.30;;;;;;6126316;23;19908;-71
2022/10/03 20:56:01;;;;;;;;;;;13.60;79.40;;;;;;6100683;23;20308;-69
2022/10/03 20:58:31;;;;;;;;;;;13.60;79.10;;;;;;6100507;23;20159;-69
2022/10/03 21:01:17;;;;;;;;;;;13.70;78.80;;;;;;6126358;23;19948;-69
2022/10/03 21:03:53;;;;;;;;;;;13.70;78.70;;;;;;6125071;23;20346;-69
2022/10/03 21:06:25;;;;;;;;;;;13.70;78.80;;;;;;6126395;23;19915;-69
2022/10/03 21:08:51;;;;;;;;;;;13.80;78.80;;;;;;6100829;23;19976;-69
2022/10/03 21:11:22;;;;;;;;;;;13.80;78.70;;;;;;6100460;23;19963;-69
2022/10/03 21:13:55;;;;;;;;;;;13.80;78.40;;;;;;6100888;23;19908;-69
2022/10/03 21:16:42;;;;;;;;;;;13.90;78.30;;;;;;6100466;23;19920;-69
2022/10/03 21:19:15;;;;;;;;;;;14.00;78.40;;;;;;6125496;23;19954;-69
2022/10/03 21:21:46;;;;;;;;;;;14.10;78.40;;;;;;6100306;23;19917;-69
2022/10/03 21:24:18;;;;;;;;;;;14.10;77.80;;;;;;6100682;23;19939;-69
2022/10/03 21:26:46;;;;;;;;;;;14.20;77.70;;;;;;6100290;23;19901;-68
2022/10/03 21:29:27;;;;;;;;;;;14.20;77.50;;;;;;6125821;23;19905;-70
2022/10/03 21:31:56;;;;;;;;;;;14.20;77.60;;;;;;6126275;23;19915;-70
2022/10/03 21:34:27;;;;;;;;;;;14.30;77.90;;;;;;6100388;23;20007;-70
2022/10/03 21:37:03;;;;;;;;;;;14.40;77.80;;;;;;6076051;23;19905;-70
2022/10/03 21:39:37;;;;;;;;;;;14.40;77.80;;;;;;6125596;23;19948;-70
2022/10/03 21:42:15;;;;;;;;;;;14.50;77.10;;;;;;6100459;23;20240;-70
2022/10/03 21:44:54;;;;;;;;;;;14.60;77.30;;;;;;6126072;23;19912;-69
2022/10/03 21:47:21;;;;;;;;;;;14.60;77.00;;;;;;6125413;23;19901;-69
2022/10/03 21:49:51;;;;;;;;;;;14.60;77.10;;;;;;6124790;23;19904;-68
2022/10/03 21:52:22;;;;;;;;;;;14.70;77.30;;;;;;6097512;23;19915;-68
2022/10/03 21:55:03;;;;;;;;;;;14.80;76.60;;;;;;6075309;23;19901;-68
2022/10/03 21:57:45;;;;;;;;;;;14.80;76.70;;;;;;6125256;23;19907;-69
2022/10/03 22:00:12;;;;;;;;;;;14.80;76.50;;;;;;6098674;23;19915;-68
2022/10/03 22:02:41;;;;;;;;;;;14.90;76.30;;;;;;6124196;23;20004;-68
2022/10/03 22:05:08;;;;;;;;;;;15.00;75.80;;;;;;6125448;23;19908;-68
2022/10/03 22:07:36;;;;;;;;;;;15.00;75.80;;;;;;6125264;23;19901;-68
2022/10/03 22:10:02;;;;;;;;;;;15.10;75.50;;;;;;6097158;23;20255;-69
2022/10/03 22:12:30;;;;;;;;;;;15.20;75.20;;;;;;6125226;23;19907;-68
2022/10/03 22:15:05;;;;;;;;;;;15.30;74.90;;;;;;6097384;23;19901;-69
2022/10/03 22:17:35;;;;;;;;;;;15.40;74.70;;;;;;6097968;23;19912;-69
2022/10/03 22:20:07;;;;;;;;;;;15.50;74.70;;;;;;6123787;23;20236;-69
2022/10/03 22:22:46;;;;;;;;;;;15.70;74.50;;;;;;6124038;23;19913;-69
2022/10/03 22:25:16;;;;;;;;;;;15.70;74.10;;;;;;6122505;23;19912;-69
2022/10/03 22:28:01;;;;;;;;;;;15.80;73.00;;;;;;6098226;23;20000;-68
2022/10/03 22:30:28;;;;;;;;;;;15.90;73.20;;;;;;6124221;23;19911;-69
2022/10/03 22:33:03;;;;;;;;;;;16.00;72.00;;;;;;6125322;23;19956;-69
2022/10/03 22:35:36;;;;;;;;;;;16.20;72.20;;;;;;6124278;23;19975;-71
2022/10/03 22:38:02;;;;;;;;;;;16.30;71.20;;;;;;6124687;23;19948;-70
2022/10/03 22:40:29;;;;;;;;;;;16.40;71.80;;;;;;6124588;23;19901;-71
2022/10/03 22:42:57;;;;;;;;;;;16.60;70.60;;;;;;6097238;23;20346;-71
2022/10/03 22:45:24;;;;;;;;;;;16.70;70.80;;;;;;6122786;23;19988;-70
2022/10/03 22:47:51;;;;;;;;;;;16.80;69.00;;;;;;6097296;23;19901;-70
2022/10/03 22:50:18;;;;;;;;;;;16.80;69.70;;;;;;6098263;23;20021;-70
2022/10/03 22:52:47;;;;;;;;;;;17.00;69.80;;;;;;6096713;23;19904;-70
2022/10/03 22:55:13;;;;;;;;;;;17.10;69.10;;;;;;6099187;23;19936;-70
2022/10/03 22:57:40;;;;;;;;;;;17.10;69.10;;;;;;6097546;23;20334;-70
2022/10/03 23:00:09;;;;;;;;;;;17.20;69.30;;;;;;6124431;23;20272;-70
2022/10/03 23:02:38;;;;;;;;;;;17.20;69.10;;;;;;6124250;23;19901;-70
2022/10/03 23:05:12;;;;;;;;;;;17.30;69.30;;;;;;6097470;23;20284;-71
2022/10/03 23:07:42;;;;;;;;;;;17.40;68.90;;;;;;6124466;23;19901;-71
2022/10/03 23:10:27;;;;;;;;;;;17.50;69.20;;;;;;6097267;23;19955;-71
2022/10/03 23:12:56;;;;;;;;;;;17.60;69.20;;;;;;6123767;23;20269;-71
2022/10/03 23:15:22;;;;;;;;;;;17.60;68.00;;;;;;6097823;23;19905;-70
2022/10/03 23:17:55;;;;;;;;;;;17.70;68.10;;;;;;6099182;23;20370;-71
2022/10/03 23:20:30;;;;;;;;;;;17.70;67.40;;;;;;6125386;23;19904;-71
2022/10/03 23:22:58;;;;;;;;;;;17.70;67.80;;;;;;6124931;23;19912;-70
